Time;durP1;ratioP1;P1;durP2;ratioP2;P2;SDS_P1;SDS_P2;PMS_P1;PMS_P2;Temp;Humidity;BMP_temperature;BMP_pressure;BME280_temperature;BME280_humidity;BME280_pressure;Samples;Min_cycle;Max_cycle;Signal;HPM_P1;HPM_P2
2022/03/08 00:02:26;;;;;;;13.07;6.47;;;;;;;-16.68;51.67;96661.75;6322584;28;20040;-64
2022/03/08 00:05:31;;;;;;;12.38;5.65;;;;;;;-16.61;51.62;96668.75;6322203;28;20055;-64
2022/03/08 00:08:35;;;;;;;11.95;6.70;;;;;;;-16.61;51.59;96673.78;6322355;28;20131;-62
2022/03/08 00:11:40;;;;;;;17.75;7.05;;;;;;;-16.61;51.64;96673.78;6321007;28;20052;-64
2022/03/08 00:14:42;;;;;;;15.10;7.60;;;;;;;-16.56;51.68;96670.63;6320629;28;20059;-65
2022/03/08 00:17:47;;;;;;;7.85;4.10;;;;;;;-16.54;51.76;96680.75;6322138;28;20036;-63
2022/03/08 00:20:52;;;;;;;20.25;9.65;;;;;;;-16.50;51.52;96680.03;6320957;28;20044;-64
2022/03/08 00:23:57;;;;;;;26.92;11.60;;;;;;;-16.50;51.65;96680.03;6322179;28;20040;-64
2022/03/08 00:27:01;;;;;;;19.13;9.32;;;;;;;-16.44;51.13;96664.28;6321150;28;20044;-64
2022/03/08 00:30:06;;;;;;;20.45;10.82;;;;;;;-16.33;51.39;96668.94;6322072;28;20048;-64
2022/03/08 00:33:12;;;;;;;26.65;11.25;;;;;;;-16.20;50.73;96661.78;6321535;28;20094;-63
2022/03/08 00:36:16;;;;;;;23.92;11.65;;;;;;;-16.08;50.56;96672.28;6321548;28;20040;-64
2022/03/08 00:39:21;;;;;;;21.02;10.00;;;;;;;-15.96;50.20;96672.72;6321711;28;20044;-64
2022/03/08 00:42:26;;;;;;;27.35;10.13;;;;;;;-15.82;50.29;96677.34;6321586;28;20040;-64
2022/03/08 00:45:30;;;;;;;25.92;11.30;;;;;;;-15.71;49.92;96674.41;6321400;28;20035;-63
2022/03/08 00:48:35;;;;;;;22.40;10.38;;;;;;;-15.58;49.43;96688.25;6320009;28;20399;-64
2022/03/08 00:51:40;;;;;;;20.10;8.98;;;;;;;-15.52;48.94;96685.91;6321923;28;20048;-64
2022/03/08 00:54:45;;;;;;;21.23;9.73;;;;;;;-15.50;49.21;96686.81;6321072;28;20054;-63
2022/03/08 00:57:50;;;;;;;28.27;11.38;;;;;;;-15.45;48.74;96702.97;6321303;28;20629;-63
2022/03/08 01:00:55;;;;;;;20.80;11.05;;;;;;;-15.40;48.81;96705.63;6319737;28;20047;-65
2022/03/08 01:03:59;;;;;;;21.23;10.73;;;;;;;-15.33;49.16;96692.41;6321341;28;20046;-64
2022/03/08 01:07:07;;;;;;;25.65;10.60;;;;;;;-15.21;49.07;96700.38;6321619;28;20044;-63
2022/03/08 01:10:15;;;;;;;23.30;10.38;;;;;;;-15.13;49.33;96703.16;6321443;28;20044;-64
2022/03/08 01:13:19;;;;;;;32.67;11.38;;;;;;;-15.11;49.29;96709.09;6321344;28;20040;-64
2022/03/08 01:16:22;;;;;;;22.02;9.55;;;;;;;-15.10;49.29;96708.28;6321097;28;20059;-64
2022/03/08 01:19:26;;;;;;;25.98;10.88;;;;;;;-15.13;49.48;96715.75;6319758;28;20048;-64
2022/03/08 01:22:31;;;;;;;21.88;9.50;;;;;;;-15.14;49.51;96721.63;6320600;28;20121;-63
2022/03/08 01:25:40;;;;;;;26.73;11.63;;;;;;;-15.10;50.74;96720.91;6320554;28;20040;-63
2022/03/08 01:28:44;;;;;;;20.52;9.32;;;;;;;-15.08;49.85;96729.41;6320775;28;20158;-63
2022/03/08 01:31:49;;;;;;;24.52;10.75;;;;;;;-15.12;49.71;96737.66;6320512;28;20047;-64
2022/03/08 01:34:54;;;;;;;16.10;8.05;;;;;;;-15.12;50.17;96732.59;6320516;28;20043;-64
2022/03/08 01:37:59;;;;;;;16.55;6.78;;;;;;;-15.09;50.54;96732.72;6320375;28;20040;-64
2022/03/08 01:41:04;;;;;;;28.10;11.77;;;;;;;-15.07;50.65;96735.28;6320476;28;20084;-64
2022/03/08 01:44:12;;;;;;;19.17;9.52;;;;;;;-14.98;51.26;96736.44;6318991;28;20043;-63
2022/03/08 01:47:22;;;;;;;20.00;8.88;;;;;;;-14.77;52.18;96745.50;6320441;28;20089;-64
2022/03/08 01:50:26;;;;;;;15.63;6.93;;;;;;;-14.74;52.42;96745.59;6320420;28;20052;-64
2022/03/08 01:53:33;;;;;;;9.80;5.07;;;;;;;-14.65;52.37;96740.81;6320080;28;20040;-63
2022/03/08 01:56:38;;;;;;;17.00;8.32;;;;;;;-14.50;53.48;96736.19;6320157;28;20044;-64
2022/03/08 01:59:43;;;;;;;15.18;8.05;;;;;;;-14.56;53.20;96753.72;6318993;28;20411;-64
2022/03/08 02:02:48;;;;;;;16.25;7.40;;;;;;;-14.61;53.26;96752.72;6319835;28;20058;-64
2022/03/08 02:05:53;;;;;;;16.52;8.10;;;;;;;-14.61;53.22;96762.81;6319956;28;20426;-64
2022/03/08 02:08:58;;;;;;;14.80;7.22;;;;;;;-14.59;52.84;96770.47;6318775;28;20048;-64
2022/03/08 02:12:03;;;;;;;10.57;5.78;;;;;;;-14.50;53.26;96771.56;6320112;28;20075;-63
2022/03/08 02:15:20;;;;;;;16.45;6.78;;;;;;;-14.64;53.20;96762.72;6319572;28;20507;-64
2022/03/08 02:18:25;;;;;;;14.48;6.55;;;;;;;-14.65;53.20;96777.84;6318661;28;20036;-64
2022/03/08 02:21:34;;;;;;;16.63;6.97;;;;;;;-14.75;53.67;96771.66;6320210;28;20040;-63
2022/03/08 02:24:39;;;;;;;14.57;6.82;;;;;;;-14.89;53.48;96780.44;6320258;28;20040;-64
2022/03/08 02:27:47;;;;;;;11.65;7.13;;;;;;;-14.88;54.59;96777.13;6320064;28;20047;-64
2022/03/08 02:30:53;;;;;;;12.95;6.65;;;;;;;-14.68;54.87;96788.72;6319548;28;20044;-64
2022/03/08 02:33:58;;;;;;;14.43;6.47;;;;;;;-14.79;55.73;96790.91;6319596;28;20052;-64
2022/03/08 02:37:07;;;;;;;12.98;5.38;;;;;;;-14.85;55.96;96797.44;6319947;28;20044;-63
2022/03/08 02:40:16;;;;;;;13.43;6.15;;;;;;;-15.15;56.44;96798.13;6320023;28;20499;-64
2022/03/08 02:43:20;;;;;;;12.55;3.95;;;;;;;-15.37;56.54;96786.47;6318794;28;20040;-64
2022/03/08 02:46:25;;;;;;;14.90;5.93;;;;;;;-15.48;56.41;96793.69;6319631;28;20043;-64
2022/03/08 02:49:31;;;;;;;8.05;4.63;;;;;;;-15.41;56.52;96795.59;6321990;28;20040;-64
2022/03/08 02:52:37;;;;;;;12.93;5.63;;;;;;;-15.27;56.36;96795.22;6324134;28;20032;-63
2022/03/08 02:55:41;;;;;;;13.20;5.90;;;;;;;-15.42;56.68;96793.88;6322865;28;20035;-63
2022/03/08 02:58:46;;;;;;;11.85;6.45;;;;;;;-15.47;56.17;96795.38;6324038;28;20044;-64
2022/03/08 03:01:50;;;;;;;10.48;5.18;;;;;;;-15.42;56.67;96809.03;6323993;28;20054;-65
2022/03/08 03:04:54;;;;;;;10.15;5.55;;;;;;;-15.42;56.15;96806.50;6323929;28;20143;-64
2022/03/08 03:08:00;;;;;;;10.43;5.57;;;;;;;-15.34;56.32;96805.88;6323739;28;20044;-64
2022/03/08 03:11:05;;;;;;;11.65;6.18;;;;;;;-15.23;56.10;96812.16;6323694;28;20035;-64
2022/03/08 03:14:10;;;;;;;10.07;4.97;;;;;;;-15.09;55.88;96818.53;6322621;28;20051;-63
2022/03/08 03:17:17;;;;;;;10.50;6.00;;;;;;;-14.96;55.44;96819.81;6323830;28;20047;-64
2022/03/08 03:20:23;;;;;;;12.57;5.60;;;;;;;-14.77;54.98;96826.31;6322375;28;20047;-63
2022/03/08 03:23:28;;;;;;;12.93;5.88;;;;;;;-14.55;54.68;96833.78;6323363;28;20040;-64
2022/03/08 03:26:32;;;;;;;13.57;6.10;;;;;;;-14.31;54.39;96832.78;6323282;28;20518;-64
2022/03/08 03:29:37;;;;;;;13.07;6.20;;;;;;;-14.05;54.18;96836.94;6323613;28;20046;-63
2022/03/08 03:32:42;;;;;;;14.15;7.32;;;;;;;-13.77;53.79;96834.38;6323087;28;20050;-64
2022/03/08 03:35:47;;;;;;;16.92;7.35;;;;;;;-13.43;53.14;96848.81;6322947;28;20036;-64
2022/03/08 03:38:53;;;;;;;15.45;6.72;;;;;;;-13.07;52.32;96846.38;6322867;28;20044;-64
2022/03/08 03:41:58;;;;;;;11.32;6.00;;;;;;;-12.74;51.53;96846.38;6322959;28;20336;-64
2022/03/08 03:45:02;;;;;;;11.23;5.05;;;;;;;-12.45;50.98;96853.84;6322813;28;20064;-64
2022/03/08 03:48:08;;;;;;;8.27;5.25;;;;;;;-11.98;50.24;96856.63;6323196;28;20051;-64
2022/03/08 03:51:11;;;;;;;14.02;6.55;;;;;;;-11.45;49.38;96856.88;6321584;28;20044;-64
2022/03/08 03:54:15;;;;;;;17.00;8.17;;;;;;;-11.01;48.69;96851.81;6322779;28;20047;-64
2022/03/08 03:57:19;;;;;;;;;;;;;;;-10.66;48.20;96851.59;6322859;28;20044;-64
2022/03/08 04:00:24;;;;;;;16.60;6.78;;;;;;;-10.41;47.58;96858.81;6321148;28;20302;-64
2022/03/08 04:03:29;;;;;;;11.55;6.20;;;;;;;-10.18;47.33;96861.69;6322236;28;20043;-64
2022/03/08 04:06:35;;;;;;;;;;;;;;;-10.07;46.68;96868.63;6321401;28;20039;-63
2022/03/08 04:09:40;;;;;;;9.55;5.20;;;;;;;-10.22;46.85;96864.13;6322302;28;20015;-63
2022/03/08 04:12:45;;;;;;;11.27;5.70;;;;;;;-10.19;46.90;96872.69;6321938;28;20115;-64
2022/03/08 04:15:49;;;;;;;10.73;5.25;;;;;;;-9.91;46.41;96880.72;6321813;28;20051;-65
2022/03/08 04:18:52;;;;;;;;;;;;;;;-9.86;46.42;96878.25;6322384;28;20082;-64
2022/03/08 04:21:57;;;;;;;10.35;5.47;;;;;;;-9.90;46.10;96881.63;6322070;28;19920;-64
2022/03/08 04:25:03;;;;;;;8.65;4.82;;;;;;;-9.90;46.41;96871.44;6322020;28;20410;-64
2022/03/08 04:28:07;;;;;;;9.35;5.15;;;;;;;-9.80;45.70;96880.91;6320359;28;20067;-65
2022/03/08 04:31:11;;;;;;;;;;;;;;;-9.99;45.99;96883.19;6322151;28;20036;-64
2022/03/08 04:34:15;;;;;;;10.02;4.60;;;;;;;-9.96;45.90;96890.88;6321765;28;19919;-64
2022/03/08 04:37:19;;;;;;;;;;;;;;;-9.60;45.52;96889.66;6321671;28;20089;-64
2022/03/08 04:40:24;;;;;;;5.18;3.47;;;;;;;-9.39;45.11;96895.91;6321687;28;19920;-64
2022/03/08 04:43:30;;;;;;;8.60;4.57;;;;;;;-9.29;44.46;96892.63;6321213;28;20036;-63
2022/03/08 04:46:35;;;;;;;7.40;3.92;;;;;;;-9.33;44.57;96896.84;6321312;28;20051;-64
2022/03/08 04:49:40;;;;;;;11.73;4.97;;;;;;;-9.17;44.67;96903.00;6321526;28;20621;-65
2022/03/08 04:52:48;;;;;;;10.50;4.90;;;;;;;-8.89;43.83;96895.66;6321370;28;20065;-64
2022/03/08 04:55:53;;;;;;;9.93;5.35;;;;;;;-8.77;43.48;96883.06;6321105;28;20043;-63
2022/03/08 04:58:58;;;;;;;7.30;4.32;;;;;;;-8.73;42.80;96895.00;6321103;28;20499;-62
2022/03/08 05:02:03;;;;;;;9.30;5.60;;;;;;;-8.93;42.50;96896.47;6321094;28;20522;-64
2022/03/08 05:05:08;;;;;;;10.32;5.88;;;;;;;-9.05;42.90;96898.03;6320947;28;20052;-64
2022/03/08 05:08:14;;;;;;;9.65;5.47;;;;;;;-8.96;42.79;96907.50;6320823;28;20043;-66
2022/03/08 05:11:19;;;;;;;13.63;6.18;;;;;;;-8.92;42.60;96913.47;6318986;28;20505;-65
2022/03/08 05:14:22;;;;;;;;;;;;;;;-8.67;42.43;96915.47;6319829;28;20130;-65
2022/03/08 05:17:27;;;;;;;13.07;6.25;;;;;;;-8.34;41.91;96908.97;6319176;28;19920;-64
2022/03/08 05:20:33;;;;;;;10.13;5.25;;;;;;;-7.84;41.12;96915.34;6321093;28;20398;-64
2022/03/08 05:23:37;;;;;;;10.60;5.20;;;;;;;-7.43;40.62;96919.91;6320893;28;20044;-64
2022/03/08 05:26:42;;;;;;;9.75;5.28;;;;;;;-7.24;40.38;96930.25;6320767;28;20040;-64
2022/03/08 05:29:44;;;;;;;;;;;;;;;-6.86;39.69;96927.00;6319606;28;20044;-64
2022/03/08 05:32:48;;;;;;;14.05;6.25;;;;;;;-6.73;39.04;96930.47;6320699;28;20287;-64
2022/03/08 05:35:53;;;;;;;9.93;5.30;;;;;;;-6.45;38.77;96933.13;6320671;28;20399;-64
2022/03/08 05:38:58;;;;;;;9.60;5.55;;;;;;;-6.11;38.39;96939.19;6319134;28;20048;-64
2022/03/08 05:42:03;;;;;;;8.27;3.47;;;;;;;-5.70;37.61;96946.84;6320508;28;20040;-64
2022/03/08 05:45:10;;;;;;;11.75;6.50;;;;;;;-5.57;36.25;96952.84;6320357;28;20126;-64
2022/03/08 05:48:14;;;;;;;9.15;5.88;;;;;;;-5.21;36.53;96951.06;6319876;28;20040;-65
2022/03/08 05:51:19;;;;;;;8.15;5.35;;;;;;;-4.75;35.78;96956.97;6320059;28;20036;-65
2022/03/08 05:54:24;;;;;;;10.70;5.45;;;;;;;-4.56;35.12;96956.88;6320272;28;20035;-65
2022/03/08 05:57:28;;;;;;;8.95;4.25;;;;;;;-4.32;33.93;96951.63;6318977;28;20084;-64
2022/03/08 06:00:33;;;;;;;8.63;4.57;;;;;;;-4.72;34.95;96948.41;6319211;28;20040;-64
2022/03/08 06:03:37;;;;;;;8.95;5.10;;;;;;;-4.64;35.15;96954.34;6318777;28;20044;-64
2022/03/08 06:06:42;;;;;;;5.30;2.92;;;;;;;-3.81;34.59;96964.19;6320154;28;20040;-64
2022/03/08 06:09:47;;;;;;;7.03;3.92;;;;;;;-3.10;33.35;96961.03;6320202;28;20048;-65
2022/03/08 06:12:51;;;;;;;5.22;3.85;;;;;;;-2.31;32.67;96965.28;6320204;28;20044;-65
2022/03/08 06:15:57;;;;;;;3.95;3.03;;;;;;;-1.77;31.70;96969.72;6318706;28;20051;-65
2022/03/08 06:19:02;;;;;;;6.68;4.15;;;;;;;-1.63;31.93;96966.94;6319966;28;20491;-65
2022/03/08 06:22:07;;;;;;;6.07;3.97;;;;;;;-1.31;29.47;96957.81;6318707;28;20032;-64
2022/03/08 06:25:11;;;;;;;9.05;4.30;;;;;;;-1.18;30.36;96974.81;6323000;28;20414;-64
2022/03/08 06:28:16;;;;;;;7.55;4.13;;;;;;;-0.70;29.58;96980.84;6324901;28;20043;-64
2022/03/08 06:31:21;;;;;;;9.32;4.72;;;;;;;-0.79;28.94;96983.59;6324724;28;20038;-65
2022/03/08 06:34:26;;;;;;;6.35;3.92;;;;;;;-0.63;28.48;96986.72;6325022;28;20426;-65
2022/03/08 06:37:31;;;;;;;10.55;5.38;;;;;;;-1.49;29.23;96995.94;6324685;28;20135;-65
2022/03/08 06:40:35;;;;;;;10.98;5.25;;;;;;;-2.01;29.55;96991.53;6324325;28;20044;-64
2022/03/08 06:43:40;;;;;;;8.93;5.40;;;;;;;-2.30;29.75;96995.34;6324457;28;20047;-66
2022/03/08 06:46:46;;;;;;;11.65;5.28;;;;;;;-2.75;30.07;96992.41;6324340;28;20040;-65
2022/03/08 06:49:50;;;;;;;7.50;4.30;;;;;;;-3.19;31.10;96998.84;6324389;28;20040;-65
2022/03/08 06:52:57;;;;;;;8.48;4.57;;;;;;;-3.12;31.27;97003.94;6323303;28;20040;-65
2022/03/08 06:56:02;;;;;;;10.05;5.28;;;;;;;-2.80;30.36;97004.50;6324076;28;20040;-65
2022/03/08 06:59:06;;;;;;;9.98;5.35;;;;;;;-2.99;30.54;97008.13;6324087;28;20036;-65
2022/03/08 07:02:10;;;;;;;10.10;5.88;;;;;;;-3.19;30.98;97009.16;6324140;28;20036;-65
2022/03/08 07:05:14;;;;;;;9.00;4.70;;;;;;;-3.58;31.31;97012.03;6323816;28;20048;-65
2022/03/08 07:08:19;;;;;;;8.73;4.20;;;;;;;-3.71;32.19;97013.81;6323563;28;20044;-66
2022/03/08 07:11:24;;;;;;;8.48;3.88;;;;;;;-3.86;32.07;97018.19;6323719;28;20043;-64
2022/03/08 07:14:28;;;;;;;10.25;5.90;;;;;;;-4.02;32.77;97006.28;6322545;28;20050;-64
2022/03/08 07:17:36;;;;;;;10.82;4.75;;;;;;;-3.42;32.25;97011.06;6323477;28;20040;-64
2022/03/08 07:20:39;;;;;;;10.85;4.80;;;;;;;-3.23;31.85;97020.34;6323649;28;20036;-64
2022/03/08 07:23:44;;;;;;;8.43;4.78;;;;;;;-3.38;31.80;97020.44;6323515;28;20411;-64
2022/03/08 07:26:47;;;;;;;;;;;;;;;-3.25;31.23;97016.06;6322181;28;20048;-65
2022/03/08 07:29:52;;;;;;;5.00;3.73;;;;;;;-3.89;32.09;97014.78;6322944;28;19924;-65
2022/03/08 07:33:01;;;;;;;6.80;4.13;;;;;;;-4.20;33.12;97012.38;6322630;28;20066;-65
2022/03/08 07:36:06;;;;;;;10.20;5.15;;;;;;;-3.65;32.41;97021.50;6322665;28;20496;-65
2022/03/08 07:39:10;;;;;;;11.30;5.43;;;;;;;-3.18;32.39;97015.97;6322702;28;20134;-64
2022/03/08 07:42:15;;;;;;;4.72;3.65;;;;;;;-2.92;31.53;97024.34;6323001;28;20047;-64
2022/03/08 07:45:21;;;;;;;7.35;3.25;;;;;;;-3.03;31.59;97019.28;6322982;28;20040;-64
2022/03/08 07:48:26;;;;;;;3.95;2.58;;;;;;;-3.38;32.34;97030.75;6322924;28;20123;-65
2022/03/08 07:51:30;;;;;;;4.70;2.53;;;;;;;-3.77;32.94;97032.72;6321708;28;20059;-63
2022/03/08 07:54:33;;;;;;;5.05;3.00;;;;;;;-4.10;33.81;97031.19;6322915;28;20076;-65
2022/03/08 07:57:37;;;;;;;5.10;2.17;;;;;;;-4.03;34.10;97039.72;6322832;28;20048;-65
2022/03/08 08:00:43;;;;;;;7.43;3.22;;;;;;;-4.06;33.63;97027.72;6322749;28;20090;-65
2022/03/08 08:03:45;;;;;;;4.75;3.10;;;;;;;-4.18;34.00;97028.66;6321140;28;20515;-64
2022/03/08 08:06:46;;;;;;;4.90;2.00;;;;;;;-4.03;34.26;97032.84;6322420;28;20518;-65
2022/03/08 08:09:50;;;;;;;5.22;3.08;;;;;;;-3.84;33.64;97031.03;6322504;28;20040;-64
2022/03/08 08:12:52;;;;;;;3.95;2.70;;;;;;;-3.85;33.42;97026.75;6322627;28;20431;-64
2022/03/08 08:15:53;;;;;;;4.60;3.00;;;;;;;-4.11;33.65;97027.75;6321849;28;20150;-64
2022/03/08 08:18:58;;;;;;;4.45;2.67;;;;;;;-4.20;34.08;97038.06;6322318;28;20048;-64
2022/03/08 08:21:59;;;;;;;4.47;2.85;;;;;;;-4.64;33.99;97033.06;6321849;28;20543;-64
2022/03/08 08:25:01;;;;;;;3.30;1.25;;;;;;;-4.89;34.56;97029.72;6321472;28;20048;-64
2022/03/08 08:28:06;;;;;;;3.05;2.50;;;;;;;-5.45;36.04;97024.63;6321591;28;20052;-65
2022/03/08 08:31:10;;;;;;;4.32;2.60;;;;;;;-5.69;36.22;97015.22;6321615;28;20058;-66
2022/03/08 08:34:12;;;;;;;6.15;3.72;;;;;;;-5.56;36.27;97016.06;6321664;28;20124;-64
2022/03/08 08:37:14;;;;;;;4.05;2.80;;;;;;;-5.25;36.50;97005.81;6321173;28;20519;-66
2022/03/08 08:40:15;;;;;;;4.18;2.75;;;;;;;-4.90;35.68;97007.47;6321281;28;20143;-65
2022/03/08 08:43:17;;;;;;;4.25;2.60;;;;;;;-4.66;35.82;97004.84;6321144;28;20088;-65
2022/03/08 08:46:21;;;;;;;5.05;3.08;;;;;;;-4.03;34.81;96998.59;6320938;28;20044;-65
2022/03/08 08:49:25;;;;;;;3.22;2.00;;;;;;;-3.72;34.15;96992.41;6320979;28;20517;-65
2022/03/08 08:52:29;;;;;;;5.18;2.72;;;;;;;-3.59;34.14;96994.88;6321532;28;20040;-63
2022/03/08 08:55:30;;;;;;;4.22;2.55;;;;;;;-3.40;33.94;96999.00;6321558;28;20044;-65
2022/03/08 08:58:38;;;;;;;1.48;1.17;;;;;;;-2.87;32.81;97008.00;6321591;28;20043;-64
2022/03/08 09:01:42;;;;;;;5.05;2.40;;;;;;;-2.76;32.37;97010.47;6320474;28;20048;-65
2022/03/08 09:04:44;;;;;;;3.70;2.35;;;;;;;-2.03;31.28;96998.44;6319620;28;20050;-63
2022/03/08 09:07:45;;;;;;;3.67;2.42;;;;;;;-1.53;30.66;97009.75;6320468;28;20058;-65
2022/03/08 09:10:49;;;;;;;4.60;2.72;;;;;;;-0.15;29.54;97009.94;6320568;28;20059;-64
2022/03/08 09:13:51;;;;;;;3.75;2.30;;;;;;;1.83;26.51;97014.69;6320250;28;20051;-64
2022/03/08 09:16:52;;;;;;;3.83;2.80;;;;;;;2.76;25.87;97013.66;6320070;28;20499;-64
2022/03/08 09:19:56;;;;;;;5.78;3.03;;;;;;;3.36;24.56;97012.53;6320478;28;20048;-64
2022/03/08 09:23:01;;;;;;;4.80;2.70;;;;;;;4.43;23.51;97015.63;6319870;28;20047;-64
2022/03/08 09:26:05;;;;;;;4.22;2.83;;;;;;;4.27;23.42;97012.75;6318802;28;20058;-64
2022/03/08 09:29:10;;;;;;;4.25;3.03;;;;;;;4.13;23.65;97021.06;6320554;28;20047;-64
2022/03/08 09:32:19;;;;;;;4.40;3.20;;;;;;;4.41;23.44;97022.66;6319048;28;20044;-65
2022/03/08 09:35:21;;;;;;;4.20;2.70;;;;;;;4.60;22.91;97028.88;6319535;28;20064;-64
2022/03/08 09:38:22;;;;;;;3.80;2.80;;;;;;;4.41;23.33;97033.91;6320481;28;20047;-64
2022/03/08 09:41:25;;;;;;;6.50;3.45;;;;;;;3.78;23.29;97032.78;6320222;28;20540;-64
2022/03/08 09:44:27;;;;;;;6.07;3.22;;;;;;;2.42;24.82;97027.69;6320135;28;20054;-64
2022/03/08 09:47:31;;;;;;;6.93;3.88;;;;;;;1.99;25.67;97036.72;6319945;28;20044;-65
2022/03/08 09:50:35;;;;;;;7.15;4.15;;;;;;;1.88;25.90;97039.59;6319990;28;20055;-63
2022/03/08 09:53:39;;;;;;;5.18;3.90;;;;;;;1.32;25.85;97040.22;6320303;28;20055;-64
2022/03/08 09:56:40;;;;;;;6.03;3.58;;;;;;;1.22;26.39;97035.28;6320079;28;20036;-65
2022/03/08 09:59:42;;;;;;;3.90;2.85;;;;;;;0.70;26.53;97050.38;6324061;28;20044;-64
2022/03/08 10:02:54;;;;;;;6.70;3.72;;;;;;;0.01;27.47;97058.78;6325555;28;20052;-65
2022/03/08 10:06:01;;;;;;;6.53;3.20;;;;;;;-0.62;29.31;97053.06;6325133;28;20055;-67
2022/03/08 10:09:22;;;;;;;6.65;3.78;;;;;;;-1.12;29.89;97057.34;6325196;28;20051;-65
2022/03/08 10:12:25;;;;;;;4.10;2.67;;;;;;;-0.29;28.87;97051.56;6324773;28;20487;-63
2022/03/08 10:15:26;;;;;;;3.65;3.15;;;;;;;-0.14;28.71;97045.28;6324371;28;20172;-64
2022/03/08 10:18:32;;;;;;;4.82;3.05;;;;;;;-0.05;28.78;97060.59;6324296;28;20419;-65
2022/03/08 10:21:45;;;;;;;4.30;3.38;;;;;;;-0.68;29.84;97047.97;6325199;28;20044;-65
2022/03/08 10:24:47;;;;;;;5.78;3.35;;;;;;;-1.05;30.52;97064.09;6324579;28;20090;-64
2022/03/08 10:27:54;;;;;;;4.32;2.78;;;;;;;-1.09;30.61;97067.63;6324380;28;20418;-63
2022/03/08 10:30:57;;;;;;;4.97;3.28;;;;;;;-1.16;30.55;97066.00;6324847;28;20032;-65
2022/03/08 10:34:07;;;;;;;5.07;3.03;;;;;;;-0.67;30.17;97062.63;6324384;28;20048;-64
2022/03/08 10:37:19;;;;;;;4.03;2.40;;;;;;;-0.57;30.19;97056.41;6324377;28;20059;-65
2022/03/08 10:40:37;;;;;;;4.35;3.30;;;;;;;-0.71;29.96;97064.41;6324255;28;20059;-63
2022/03/08 10:43:49;;;;;;;4.93;2.13;;;;;;;-0.98;30.63;97060.56;6324403;28;20054;-65
2022/03/08 10:47:10;;;;;;;4.40;2.78;;;;;;;-1.65;32.13;97064.97;6324581;28;20044;-64
2022/03/08 10:50:14;;;;;;;4.45;3.20;;;;;;;-1.50;32.08;97055.31;6324273;28;20043;-64
2022/03/08 10:53:24;;;;;;;5.82;2.60;;;;;;;-1.36;32.20;97054.25;6324287;28;20047;-65
2022/03/08 10:56:27;;;;;;;4.43;2.70;;;;;;;-1.71;32.57;97056.47;6324211;28;20418;-66
2022/03/08 10:59:29;;;;;;;5.20;2.78;;;;;;;-1.79;32.89;97060.88;6323569;28;20048;-64
2022/03/08 11:02:32;;;;;;;5.05;3.10;;;;;;;-2.05;33.53;97054.34;6323746;28;20047;-65
2022/03/08 11:05:45;;;;;;;3.15;2.30;;;;;;;-1.51;32.69;97048.47;6324522;28;20031;-65
2022/03/08 11:08:53;;;;;;;3.90;2.75;;;;;;;-0.97;31.78;97048.47;6321861;28;20545;-65
2022/03/08 11:11:57;;;;;;;3.65;2.25;;;;;;;0.02;30.15;97050.13;6323216;28;20044;-64
2022/03/08 11:14:58;;;;;;;3.55;2.58;;;;;;;0.81;29.56;97048.38;6323038;28;20040;-65
2022/03/08 11:18:05;;;;;;;3.45;2.25;;;;;;;1.16;29.15;97049.28;6323632;28;20039;-64
2022/03/08 11:21:08;;;;;;;3.25;2.17;;;;;;;1.80;28.13;97050.19;6322010;28;20139;-65
2022/03/08 11:24:14;;;;;;;3.42;2.75;;;;;;;1.72;28.29;97043.50;6323340;28;20048;-64
2022/03/08 11:27:20;;;;;;;4.63;3.17;;;;;;;1.16;28.76;97043.22;6323376;28;20064;-64
2022/03/08 11:30:29;;;;;;;3.25;2.30;;;;;;;0.54;29.50;97043.81;6323010;28;20054;-64
2022/03/08 11:33:38;;;;;;;4.15;2.40;;;;;;;-0.09;30.85;97027.91;6322737;28;20482;-64
2022/03/08 11:36:51;;;;;;;2.28;2.08;;;;;;;0.06;30.30;97038.81;6322914;28;20054;-64
2022/03/08 11:40:08;;;;;;;3.58;2.85;;;;;;;-0.39;31.01;97044.03;6322559;28;20538;-64
2022/03/08 11:43:09;;;;;;;3.05;2.22;;;;;;;-0.48;31.02;97042.47;6323270;28;20047;-64
2022/03/08 11:46:21;;;;;;;4.40;3.15;;;;;;;-0.96;32.18;97032.97;6322941;28;20079;-64
2022/03/08 11:49:53;;;;;;;4.47;2.72;;;;;;;-1.15;32.79;97034.16;6323094;28;20067;-64
2022/03/08 11:53:05;;;;;;;4.80;2.38;;;;;;;-1.28;32.42;97048.97;6323021;28;20050;-64
2022/03/08 11:56:15;;;;;;;4.28;3.00;;;;;;;-2.03;33.91;97044.84;6322603;28;20054;-64
2022/03/08 11:59:16;;;;;;;9.52;3.80;;;;;;;-2.59;34.88;97048.94;6322884;28;20040;-64
2022/03/08 12:02:20;;;;;;;6.10;3.13;;;;;;;-3.25;36.04;97047.81;6322406;28;20035;-65
2022/03/08 12:05:55;;;;;;;6.28;3.40;;;;;;;-3.27;36.30;97044.38;6322334;28;20047;-64
2022/03/08 12:09:09;;;;;;;5.45;3.20;;;;;;;-3.49;36.70;97045.41;6321872;28;20047;-65
2022/03/08 12:12:20;;;;;;;6.18;2.92;;;;;;;-3.66;36.94;97045.50;6322083;28;20052;-65
2022/03/08 12:15:24;;;;;;;6.55;3.83;;;;;;;-4.11;37.62;97048.31;6322327;28;20055;-64
2022/03/08 12:18:34;;;;;;;6.35;3.63;;;;;;;-4.42;38.57;97046.72;6322551;28;20073;-64
2022/03/08 12:21:40;;;;;;;4.68;3.17;;;;;;;-4.93;39.66;97049.38;6320914;28;20040;-65
2022/03/08 12:24:53;;;;;;;6.15;3.35;;;;;;;-5.26;40.43;97045.16;6320650;28;20166;-64
2022/03/08 12:27:59;;;;;;;7.10;3.72;;;;;;;-5.89;41.36;97057.88;6322302;28;20048;-65
2022/03/08 12:31:06;;;;;;;5.80;3.20;;;;;;;-6.27;42.46;97044.97;6321630;28;20519;-67
2022/03/08 12:34:11;;;;;;;4.53;3.10;;;;;;;-6.61;43.16;97047.38;6321806;28;20047;-65
2022/03/08 12:37:14;;;;;;;3.95;2.75;;;;;;;-6.91;43.22;97056.59;6319987;28;20504;-65
2022/03/08 12:40:19;;;;;;;5.68;3.35;;;;;;;-7.23;44.26;97052.09;6321849;28;20427;-64
2022/03/08 12:43:22;;;;;;;3.95;3.22;;;;;;;-7.37;44.35;97046.03;6321874;28;20139;-64
2022/03/08 12:46:24;;;;;;;5.57;2.92;;;;;;;-7.59;44.54;97036.47;6321741;28;20054;-65
2022/03/08 12:49:26;;;;;;;4.68;3.22;;;;;;;-7.77;44.88;97042.28;6321448;28;20052;-64
2022/03/08 12:52:36;;;;;;;6.65;3.50;;;;;;;-7.80;45.65;97037.16;6321540;28;20047;-64
2022/03/08 12:55:40;;;;;;;10.13;4.90;;;;;;;-8.01;46.33;97040.31;6320619;28;20044;-64
2022/03/08 12:58:42;;;;;;;6.40;4.20;;;;;;;-8.31;47.04;97051.91;6321046;28;20052;-65
2022/03/08 13:01:48;;;;;;;6.20;3.05;;;;;;;-8.35;47.95;97045.06;6321048;28;20044;-66
2022/03/08 13:05:01;;;;;;;5.97;3.95;;;;;;;-8.76;48.55;97058.19;6321181;28;20040;-64
2022/03/08 13:08:03;;;;;;;5.03;3.33;;;;;;;-8.82;49.19;97058.09;6320772;28;20055;-65
2022/03/08 13:11:13;;;;;;;5.35;3.58;;;;;;;-9.02;49.74;97054.44;6321115;28;20044;-64
2022/03/08 13:14:20;;;;;;;8.35;3.78;;;;;;;-9.06;50.40;97062.03;6320423;28;20044;-64
2022/03/08 13:17:29;;;;;;;6.97;3.78;;;;;;;-9.46;51.05;97067.34;6321964;28;20054;-65
2022/03/08 13:20:48;;;;;;;7.05;3.92;;;;;;;-9.41;51.50;97051.28;6321568;28;20043;-65
2022/03/08 13:23:49;;;;;;;7.45;4.05;;;;;;;-9.63;52.04;97054.31;6321584;28;20047;-66
2022/03/08 13:27:00;;;;;;;8.48;4.75;;;;;;;-9.78;52.56;97065.09;6320905;28;20050;-64
2022/03/08 13:30:20;;;;;;;5.18;4.13;;;;;;;-9.74;52.84;97071.94;6319340;28;20482;-65
2022/03/08 13:33:34;;;;;;;8.10;4.25;;;;;;;-10.17;53.65;97072.03;6320373;28;20062;-65
2022/03/08 13:36:35;;;;;;;7.45;4.07;;;;;;;-10.33;54.61;97069.19;6320315;28;20052;-64
2022/03/08 13:39:44;;;;;;;5.78;3.10;;;;;;;-10.55;54.95;97073.88;6320874;28;20044;-66
2022/03/08 13:42:46;;;;;;;9.05;4.05;;;;;;;-10.67;55.36;97065.97;6320105;28;20048;-65
2022/03/08 13:45:52;;;;;;;7.50;3.67;;;;;;;-10.78;55.40;97059.78;6320372;28;20036;-65
2022/03/08 13:49:08;;;;;;;6.68;4.07;;;;;;;-10.90;55.81;97071.44;6318706;28;20158;-66
2022/03/08 13:52:09;;;;;;;8.40;3.80;;;;;;;-10.85;56.35;97069.84;6320578;28;20056;-64
2022/03/08 13:55:15;;;;;;;9.60;4.97;;;;;;;-11.10;56.61;97072.66;6319956;28;20044;-64
2022/03/08 13:58:20;;;;;;;7.95;4.38;;;;;;;-11.36;57.00;97067.84;6320316;28;20063;-64
2022/03/08 14:01:26;;;;;;;5.70;3.88;;;;;;;-11.37;56.84;97068.69;6318660;28;20613;-64
2022/03/08 14:04:28;;;;;;;7.40;4.50;;;;;;;-11.38;56.96;97066.97;6320164;28;20040;-64
2022/03/08 14:07:31;;;;;;;;;;;;;;;-11.23;56.59;97068.16;6320463;28;20047;-64
2022/03/08 14:10:51;;;;;;;4.75;3.80;;;;;;;-11.31;57.18;97068.81;6320356;28;19920;-64
2022/03/08 14:14:00;;;;;;;5.70;3.38;;;;;;;-11.44;57.49;97069.34;6320157;28;20075;-64
2022/03/08 14:17:05;;;;;;;7.40;3.88;;;;;;;-11.47;57.32;97071.81;6319579;28;20048;-64
2022/03/08 14:20:21;;;;;;;5.32;3.25;;;;;;;-11.46;57.84;97078.63;6319873;28;20040;-65
2022/03/08 14:23:26;;;;;;;7.18;4.10;;;;;;;-11.45;57.64;97064.25;6318832;28;20066;-65
2022/03/08 14:26:27;;;;;;;10.77;4.40;;;;;;;-11.49;57.78;97058.25;6319456;28;20059;-64
2022/03/08 14:29:34;;;;;;;5.70;3.83;;;;;;;-11.54;57.64;97068.28;6319362;28;20048;-64